createdAt,value
2023-01-25T00:12:14.460Z,68.66
2023-01-25T00:16:43.922Z,68.74
2023-01-25T00:21:14.056Z,68.60
2023-01-25T00:39:42.645Z,68.70
2023-01-25T00:44:12.116Z,68.58
2023-01-25T00:48:26.211Z,68.72
2023-01-25T00:52:54.812Z,68.71
2023-01-25T00:57:25.463Z,68.53
2023-01-25T01:01:49.455Z,68.71
2023-01-25T01:06:19.587Z,68.59
2023-01-25T01:27:55.257Z,68.85
2023-01-25T01:32:16.849Z,68.55
2023-01-25T01:36:49.316Z,68.57
2023-01-25T01:58:24.278Z,68.48
2023-01-25T02:02:53.513Z,68.61
2023-01-25T02:07:41.945Z,68.63
2023-01-25T02:33:54.327Z,68.76
2023-01-25T02:38:14.546Z,68.78
2023-01-25T02:42:36.568Z,68.89
2023-01-25T02:59:28.317Z,68.73
2023-01-25T03:03:57.697Z,68.60
2023-01-25T03:08:26.867Z,68.61
2023-01-25T03:12:57.299Z,68.86
2023-01-25T03:35:18.592Z,68.86
2023-01-25T03:39:37.632Z,68.92
2023-01-25T03:44:06.939Z,69.11
2023-01-25T04:09:52.448Z,69.06
2023-01-25T04:14:10.230Z,68.75
2023-01-25T04:23:36.697Z,68.83
2023-01-25T04:49:08.453Z,69.00
2023-01-25T04:53:26.854Z,69.01
2023-01-25T05:15:14.186Z,69.15
2023-01-25T05:19:43.501Z,69.24
2023-01-25T05:24:12.448Z,69.06
2023-01-25T05:28:42.569Z,69.32
2023-01-25T05:33:20.641Z,69.35
2023-01-25T05:37:42.675Z,69.48
2023-01-25T05:55:04.229Z,69.43
2023-01-25T05:59:34.135Z,69.33
2023-01-25T06:03:46.145Z,69.53
2023-01-25T06:08:16.526Z,69.46
2023-01-25T06:34:04.517Z,69.18
2023-01-25T06:38:36.855Z,69.52
2023-01-25T06:43:06.458Z,69.43
2023-01-25T06:47:35.670Z,69.58
2023-01-25T06:51:48.391Z,69.66
2023-01-25T07:21:30.665Z,69.52
2023-01-25T07:25:48.181Z,69.93
2023-01-25T07:30:17.499Z,69.86
2023-01-25T07:34:47.773Z,69.50
2023-01-25T07:39:17.038Z,69.76
2023-01-25T07:43:04.911Z,69.61
2023-01-25T08:10:01.757Z,69.51
2023-01-25T08:14:31.218Z,69.78
2023-01-25T08:19:01.011Z,69.64
2023-01-25T08:23:22.848Z,69.49
2023-01-25T08:36:03.824Z,69.52
2023-01-25T08:40:35.192Z,69.61
2023-01-25T08:45:08.577Z,69.61
2023-01-25T08:49:37.980Z,69.61
2023-01-25T08:54:02.731Z,69.55
2023-01-25T08:58:33.120Z,69.67
2023-01-25T09:02:55.471Z,69.65
2023-01-25T09:07:08.704Z,69.46
2023-01-25T09:29:31.218Z,69.45
2023-01-25T09:33:40.703Z,69.98
2023-01-25T09:37:54.638Z,69.59
2023-01-25T09:42:23.505Z,69.50
2023-01-25T09:46:56.864Z,69.44
2023-01-25T09:51:33.093Z,69.63
2023-01-25T09:56:02.397Z,69.81
2023-01-25T10:17:22.149Z,69.64
2023-01-25T10:21:17.558Z,69.65
2023-01-25T10:26:05.195Z,69.73
2023-01-25T10:30:34.032Z,69.62
2023-01-25T10:35:15.624Z,69.73
2023-01-25T10:39:54.185Z,69.31
2023-01-25T11:01:11.833Z,69.56
2023-01-25T11:05:41.062Z,69.46
2023-01-25T11:10:22.570Z,69.47
2023-01-25T11:14:42.983Z,69.50
2023-01-25T11:18:56.364Z,69.65
2023-01-25T11:23:32.369Z,69.61
2023-01-25T11:28:21.304Z,69.45
2023-01-25T11:56:36.942Z,69.43
2023-01-25T12:01:07.883Z,69.33
2023-01-25T12:05:47.056Z,69.38
2023-01-25T12:10:23.882Z,69.52
2023-01-25T12:15:02.103Z,69.58
2023-01-25T12:19:30.127Z,69.61
2023-01-25T12:32:41.595Z,69.17
2023-01-25T12:37:17.870Z,69.20
2023-01-25T12:41:56.279Z,69.27
2023-01-25T12:46:15.478Z,69.27
2023-01-25T12:50:41.248Z,69.31
2023-01-25T12:54:43.027Z,69.21
2023-01-25T13:20:59.622Z,69.30
2023-01-25T13:25:44.243Z,69.23
2023-01-25T13:30:40.803Z,69.22
2023-01-25T13:39:27.043Z,69.38
2023-01-25T13:44:00.895Z,69.30
2023-01-25T13:48:42.150Z,69.28
2023-01-25T13:53:25.679Z,69.30
2023-01-25T13:57:55.822Z,69.27
2023-01-25T14:01:56.292Z,69.33
2023-01-25T14:06:24.150Z,69.12
2023-01-25T14:10:43.230Z,69.04
2023-01-25T14:24:49.762Z,69.08
2023-01-25T14:29:19.025Z,69.18
2023-01-25T14:34:06.382Z,69.19
2023-01-25T14:52:21.398Z,69.28
2023-01-25T14:57:02.255Z,69.35
2023-01-25T15:01:34.482Z,69.18
2023-01-25T15:23:15.553Z,69.53
2023-01-25T15:27:44.370Z,69.66
2023-01-25T15:32:03.553Z,69.70
2023-01-25T15:36:33.808Z,69.64
2023-01-25T15:41:01.619Z,69.87
2023-01-25T16:04:54.409Z,69.92
2023-01-25T16:09:23.305Z,69.94
2023-01-25T16:13:27.687Z,69.96
2023-01-25T16:17:57.751Z,70.13
2023-01-25T16:39:37.640Z,70.20
2023-01-25T16:44:07.004Z,70.13
2023-01-25T16:48:36.280Z,69.88
2023-01-25T16:52:49.498Z,70.28
2023-01-25T17:12:31.553Z,70.23
2023-01-25T17:17:00.825Z,70.12
2023-01-25T17:21:38.174Z,70.20
2023-01-25T17:25:59.217Z,70.17
2023-01-25T17:30:22.368Z,70.39
2023-01-25T17:34:54.002Z,70.66
2023-01-25T18:01:27.871Z,70.77
2023-01-25T18:05:57.164Z,70.76
2023-01-25T18:10:26.582Z,70.78
2023-01-25T18:18:36.343Z,70.71
2023-01-25T18:22:42.226Z,70.73
2023-01-25T18:31:21.121Z,70.66
2023-01-25T18:35:51.008Z,70.85
2023-01-25T18:59:23.885Z,70.93
2023-01-25T19:03:37.627Z,70.90
2023-01-25T19:08:07.320Z,70.72
2023-01-25T19:12:09.097Z,70.87
2023-01-25T19:16:22.254Z,71.01
2023-01-25T19:20:14.933Z,70.94
2023-01-25T19:37:15.069Z,71.22
2023-01-25T19:41:14.427Z,71.51
2023-01-25T19:45:18.173Z,71.24
2023-01-25T19:49:47.496Z,71.21
2023-01-25T20:11:02.216Z,71.50
2023-01-25T20:15:31.486Z,71.29
2023-01-25T20:19:53.590Z,71.33
2023-01-25T20:24:24.314Z,71.79
2023-01-25T20:28:54.580Z,71.76
2023-01-25T21:35:25.423Z,71.99
2023-01-25T21:39:54.818Z,71.91
2023-01-25T21:44:22.738Z,71.95
2023-01-25T21:48:41.899Z,72.19
2023-01-25T21:53:02.698Z,71.99
2023-01-25T21:56:29.638Z,71.98
2023-01-25T22:00:50.389Z,72.08
2023-01-25T22:05:05.696Z,71.94
2023-01-25T22:08:36.172Z,72.14
2023-01-25T22:11:49.910Z,71.91
2023-01-25T22:16:03.218Z,72.04
2023-01-25T22:20:32.555Z,72.17
2023-01-25T22:24:57.285Z,72.00
2023-01-25T22:59:25.641Z,72.33
2023-01-25T23:03:54.439Z,72.25
2023-01-25T23:08:23.738Z,72.26
2023-01-25T23:12:54.128Z,72.05
2023-01-25T23:21:14.597Z,72.22
2023-01-25T23:25:34.286Z,72.10
2023-01-25T23:33:56.531Z,72.38
2023-01-25T23:38:06.628Z,72.15
2023-01-25T23:42:36.051Z,71.76
